Pacific Beryl — 9V9809 — position and weather

sailwx.info

Track history (hours):
 
Tides and Currents Weather Stations Pressure Air Temp Water Temp Dewpoint Dewpoint Depression Visibility Wind Speed Wind Dir Waves Ship Positions

Pacific Beryl

Last reported at 2015-Jul-23 08:22 UTC. Time now 2015-Aug-01 09:50 UTC.
Position S 33°54' E 018°26'.
Warning: this ship's position is 9 days out of date.

Length 182 m; draft 11.7 m.

Type: Tanker. MMSI: 566366000.

Date/timePositionNaut miles runAvg speedWind from/ knotsBaromVisibWave heightAir tempDewpointWater temp
2015-Jul-23 08:22S 33°54' E 018°26'2 2.7
2015-Jul-23 07:31S 33°51' E 018°25'1 0.8
2015-Jul-23 06:20S 33°51' E 018°26'0 0.0
2015-Jul-23 05:05S 33°51' E 018°26'0 0.0
2015-Jul-23 03:29S 33°51' E 018°26'0 0.0
2015-Jul-23 02:26S 33°51' E 018°26'0 0.0
2015-Jul-23 01:26S 33°51' E 018°26'0 0.1
2015-Jul-23 00:23S 33°51' E 018°26'0 0.0
2015-Jul-22 23:11S 33°51' E 018°26'0 0.0
2015-Jul-22 22:32S 33°51' E 018°26'0 0.0
2015-Jul-22 21:14S 33°51' E 018°26'0 0.0
2015-Jul-22 20:23S 33°51' E 018°26'0 0.0
2015-Jul-22 18:32S 33°51' E 018°26'0 0.0
2015-Jul-22 17:20S 33°51' E 018°26'0 0.0
2015-Jul-22 16:29S 33°51' E 018°26'0 0.0
2015-Jul-22 15:32S 33°51' E 018°26'0 0.0
2015-Jul-22 14:32S 33°51' E 018°26'0 0.0
2015-Jul-22 13:32S 33°51' E 018°26'0 0.0
2015-Jul-22 12:29S 33°51' E 018°26'0 0.0
2015-Jul-22 11:29S 33°51' E 018°26'0 0.0
2015-Jul-22 10:32S 33°51' E 018°26'0 0.0
2015-Jul-22 09:32S 33°51' E 018°26'0 0.0
2015-Jul-22 08:32S 33°51' E 018°26'0 0.0
2015-Jul-22 07:20S 33°51' E 018°26'0 0.0
2015-Jul-22 06:32S 33°51' E 018°26'0 0.0
2015-Jul-22 01:23S 33°51' E 018°26'0 0.0
2015-Jul-21 19:29S 33°51' E 018°26'0 0.0
2015-Jul-21 16:26S 33°51' E 018°26'0 0.0
2015-Jul-21 15:26S 33°51' E 018°26'0 0.0
2015-Jul-21 14:29S 33°51' E 018°26'0 0.0
2015-Jul-21 13:32S 33°51' E 018°26'0 0.0
2015-Jul-21 12:32S 33°51' E 018°26'0 0.0
2015-Jul-21 11:29S 33°51' E 018°26'0 0.0
2015-Jul-21 10:29S 33°51' E 018°26'0 0.0
2015-Jul-21 09:29S 33°51' E 018°26'0 0.0
2015-Jul-21 08:26S 33°51' E 018°26'0 0.0
2015-Jul-21 07:26S 33°51' E 018°26'0 0.0
2015-Jul-21 06:26S 33°51' E 018°26'0 0.0
2015-Jul-21 05:32S 33°51' E 018°26'0 0.0
2015-Jul-21 04:20S 33°51' E 018°26'0 0.0
2015-Jul-21 03:29S 33°51' E 018°26'0 0.0
2015-Jul-21 01:26S 33°51' E 018°26'0 0.0
2015-Jul-21 00:26S 33°51' E 018°26'0 0.0
2015-Jul-20 23:26S 33°51' E 018°26'0 0.0
2015-Jul-20 22:17S 33°51' E 018°26'0 0.0
2015-Jul-20 21:32S 33°51' E 018°26'0 0.0
2015-Jul-20 20:05S 33°51' E 018°26'0 0.0
2015-Jul-20 19:20S 33°51' E 018°26'0 0.0
2015-Jul-20 18:32S 33°51' E 018°26'0 0.0
2015-Jul-20 17:29S 33°51' E 018°26'0 0.0
2015-Jul-20 14:32S 33°51' E 018°26'0 0.0
2015-Jul-20 12:32S 33°51' E 018°26'0 0.0
2015-Jul-20 11:32S 33°51' E 018°26'0 0.0
2015-Jul-20 10:29S 33°51' E 018°26'0 0.0
2015-Jul-20 09:32S 33°51' E 018°26'0 0.0
2015-Jul-20 08:33S 33°51' E 018°26'1 0.9
2015-Jul-20 07:28S 33°51' E 018°25'53 8.5
2015-Jul-20 01:15S 34°44' E 018°27'2110.9
2015-Jul-19 23:21S 34°53' E 018°49'1010.7
2015-Jul-19 22:26S 34°58' E 018°60'910.5
2015-Jul-19 21:33S 35°02' E 019°10'20 9.9
2015-Jul-19 19:31S 35°07' E 019°34'1510.3
2015-Jul-19 18:04S 35°07' E 019°52'2810.2
2015-Jul-19 15:22S 35°02' E 020°25'  
2015-Jul-16 17:23S 30°16' E 031°50'1413.2
2015-Jul-16 16:18S 30°04' E 031°58'1013.1
2015-Jul-16 15:33S 29°56' E 032°04'1312.8
2015-Jul-16 14:33S 29°45' E 032°12'1212.3
2015-Jul-16 13:33S 29°34' E 032°19'1110.6
2015-Jul-16 12:33S 29°24' E 032°20'1211.7
2015-Jul-16 11:33S 29°13' E 032°17'1211.7
2015-Jul-16 10:33S 29°01' E 032°14'1010.3
2015-Jul-16 09:34S 28°51' E 032°10'2 2.2
2015-Jul-16 08:33S 28°53' E 032°12'4 4.3
2015-Jul-16 07:32S 28°53' E 032°17'8 8.1
2015-Jul-16 06:33S 28°52' E 032°26'  
Track history (hours):
 
Tides and Currents Weather Stations Pressure Air Temp Water Temp Dewpoint Dewpoint Depression Visibility Wind Speed Wind Dir Waves Ship Positions

Pacific Beryl

Last reported at 2015-Jul-23 08:22 UTC. Time now 2015-Aug-01 09:50 UTC.
Position S 33°54' E 018°26'.
Warning: this ship's position is 9 days out of date.

Length 182 m; draft 11.7 m.

Type: Tanker. MMSI: 566366000.

Date/timePositionNaut miles runAvg speedWind from/ knotsBaromVisibWave heightAir tempDewpointWater temp
2015-Jul-23 08:22S 33°54' E 018°26'2 2.7
2015-Jul-23 07:31S 33°51' E 018°25'1 0.8
2015-Jul-23 06:20S 33°51' E 018°26'0 0.0
2015-Jul-23 05:05S 33°51' E 018°26'0 0.0
2015-Jul-23 03:29S 33°51' E 018°26'0 0.0
2015-Jul-23 02:26S 33°51' E 018°26'0 0.0
2015-Jul-23 01:26S 33°51' E 018°26'0 0.1
2015-Jul-23 00:23S 33°51' E 018°26'0 0.0
2015-Jul-22 23:11S 33°51' E 018°26'0 0.0
2015-Jul-22 22:32S 33°51' E 018°26'0 0.0
2015-Jul-22 21:14S 33°51' E 018°26'0 0.0
2015-Jul-22 20:23S 33°51' E 018°26'0 0.0
2015-Jul-22 18:32S 33°51' E 018°26'0 0.0
2015-Jul-22 17:20S 33°51' E 018°26'0 0.0
2015-Jul-22 16:29S 33°51' E 018°26'0 0.0
2015-Jul-22 15:32S 33°51' E 018°26'0 0.0
2015-Jul-22 14:32S 33°51' E 018°26'0 0.0
2015-Jul-22 13:32S 33°51' E 018°26'0 0.0
2015-Jul-22 12:29S 33°51' E 018°26'0 0.0
2015-Jul-22 11:29S 33°51' E 018°26'0 0.0
2015-Jul-22 10:32S 33°51' E 018°26'0 0.0
2015-Jul-22 09:32S 33°51' E 018°26'0 0.0
2015-Jul-22 08:32S 33°51' E 018°26'0 0.0
2015-Jul-22 07:20S 33°51' E 018°26'0 0.0
2015-Jul-22 06:32S 33°51' E 018°26'0 0.0
2015-Jul-22 01:23S 33°51' E 018°26'0 0.0
2015-Jul-21 19:29S 33°51' E 018°26'0 0.0
2015-Jul-21 16:26S 33°51' E 018°26'0 0.0
2015-Jul-21 15:26S 33°51' E 018°26'0 0.0
2015-Jul-21 14:29S 33°51' E 018°26'0 0.0
2015-Jul-21 13:32S 33°51' E 018°26'0 0.0
2015-Jul-21 12:32S 33°51' E 018°26'0 0.0
2015-Jul-21 11:29S 33°51' E 018°26'0 0.0
2015-Jul-21 10:29S 33°51' E 018°26'0 0.0
2015-Jul-21 09:29S 33°51' E 018°26'0 0.0
2015-Jul-21 08:26S 33°51' E 018°26'0 0.0
2015-Jul-21 07:26S 33°51' E 018°26'0 0.0
2015-Jul-21 06:26S 33°51' E 018°26'0 0.0
2015-Jul-21 05:32S 33°51' E 018°26'0 0.0
2015-Jul-21 04:20S 33°51' E 018°26'0 0.0
2015-Jul-21 03:29S 33°51' E 018°26'0 0.0
2015-Jul-21 01:26S 33°51' E 018°26'0 0.0
2015-Jul-21 00:26S 33°51' E 018°26'0 0.0
2015-Jul-20 23:26S 33°51' E 018°26'0 0.0
2015-Jul-20 22:17S 33°51' E 018°26'0 0.0
2015-Jul-20 21:32S 33°51' E 018°26'0 0.0
2015-Jul-20 20:05S 33°51' E 018°26'0 0.0
2015-Jul-20 19:20S 33°51' E 018°26'0 0.0
2015-Jul-20 18:32S 33°51' E 018°26'0 0.0
2015-Jul-20 17:29S 33°51' E 018°26'0 0.0
2015-Jul-20 14:32S 33°51' E 018°26'0 0.0
2015-Jul-20 12:32S 33°51' E 018°26'0 0.0
2015-Jul-20 11:32S 33°51' E 018°26'0 0.0
2015-Jul-20 10:29S 33°51' E 018°26'0 0.0
2015-Jul-20 09:32S 33°51' E 018°26'0 0.0
2015-Jul-20 08:33S 33°51' E 018°26'1 0.9
2015-Jul-20 07:28S 33°51' E 018°25'53 8.5
2015-Jul-20 01:15S 34°44' E 018°27'2110.9
2015-Jul-19 23:21S 34°53' E 018°49'1010.7
2015-Jul-19 22:26S 34°58' E 018°60'910.5
2015-Jul-19 21:33S 35°02' E 019°10'20 9.9
2015-Jul-19 19:31S 35°07' E 019°34'1510.3
2015-Jul-19 18:04S 35°07' E 019°52'2810.2
2015-Jul-19 15:22S 35°02' E 020°25'  
2015-Jul-16 17:23S 30°16' E 031°50'1413.2
2015-Jul-16 16:18S 30°04' E 031°58'1013.1
2015-Jul-16 15:33S 29°56' E 032°04'1312.8
2015-Jul-16 14:33S 29°45' E 032°12'1212.3
2015-Jul-16 13:33S 29°34' E 032°19'1110.6
2015-Jul-16 12:33S 29°24' E 032°20'1211.7
2015-Jul-16 11:33S 29°13' E 032°17'1211.7
2015-Jul-16 10:33S 29°01' E 032°14'1010.3
2015-Jul-16 09:34S 28°51' E 032°10'2 2.2
2015-Jul-16 08:33S 28°53' E 032°12'4 4.3
2015-Jul-16 07:32S 28°53' E 032°17'8 8.1
2015-Jul-16 06:33S 28°52' E 032°26'  

Dump ship's entire track history